Hauptseite
METAR-TAF:

METAR-TAF

Flughäfen :

Militärflugplatz Deelen

Arnheim, Niederlande

Breite: 52-04N, Länge: 005-53E, Höhe: 48 m

Beobachtung

Neuester Wetterbericht von vor 34 Minuten, um 09:25 UTC
Wind 3 kt aus unterschiedlichen Richtungen
Temperatur 8°C
Luftfeuchtigkeit 66%
Luftdruck 1029 hPa
Sichtweite 10 km oder mehr
Durchbrochene Bewölkung in der Höhe von 9900 ft
Geschlossene Wolkendecke in der Höhe von 10000 ft

METAR: EHDL 240925Z AUTO VRB03KT 9999 BKN099 OVC100 08/02 Q1029 BLU

Zeit: 10:59 (09:59 UTC)


TAF: fehlend

Wetterbeobachtungen und Prognosen von mehr als 4000 Flughäfen (METAR und TAF Bericht).

Die verfügbaren Stationen werden durch gelbe und rote Markierungen auf der Karte dargestellt.

Führen Sie die Maus auf sie, um den Namen der Station zu sehen.

Darauf klicken, um die Beobachtung von Wetterbeobachtungen und Prognosen zu sehen.

Um die Karte zu ändern : klicken Sie auf den grünen Tasten mit einem schwarzen Kreuz Zum Vergrößern, auf den grünen Button mit einem Gedankenstrich zu verkleinern, oder auf die grünen Pfeile für benachbarte Karten.


METAR-TAF: